Terminal Aerodrome Forecast
Issued by NWS Raleigh/Durham, NC

Home | Current Version | Previous Version | Text Only | Print | Product List | Glossary On
Versions: 1 2 3 4 5 6 7 8 9 10 11 12 13 14
000
FTUS42 KRAH 250532
TAFGSO
TAF
KGSO 250532Z 2506/2606 03004KT P6SM BKN250
     FM251500 04009G16KT P6SM SCT250
     FM260000 05006KT P6SM SCT250=

USA.gov is the U.S. government's official web portal to all federal, state and local government web resources and services.